Time;durP1;ratioP1;P1;durP2;ratioP2;P2;SDS_P1;SDS_P2;PMS_P1;PMS_P2;Temp;Humidity;BMP_temperature;BMP_pressure;BME280_temperature;BME280_humidity;BME280_pressure;Samples;Min_cycle;Max_cycle;Signal;HPM_P1;HPM_P2
2021/11/05 00:01:58;;;;;;;5.85;3.15;;;9.10;99.90;;;;;;5076376;28;20029;-74
2021/11/05 00:04:23;;;;;;;11.43;6.70;;;9.10;99.90;;;;;;5076100;28;20044;-72
2021/11/05 00:06:49;;;;;;;7.53;4.10;;;9.10;99.90;;;;;;5076305;28;20024;-74
2021/11/05 00:09:15;;;;;;;14.98;11.15;;;9.00;99.90;;;;;;5076145;28;20024;-73
2021/11/05 00:11:41;;;;;;;6.78;3.38;;;8.90;99.90;;;;;;5075919;28;20024;-73
2021/11/05 00:14:06;;;;;;;11.35;6.30;;;9.00;99.90;;;;;;5075708;28;20086;-75
2021/11/05 00:16:32;;;;;;;6.70;4.38;;;9.00;99.90;;;;;;5075888;28;20027;-72
2021/11/05 00:18:58;;;;;;;6.47;3.60;;;8.90;99.90;;;;;;5075651;28;20498;-76
2021/11/05 00:21:23;;;;;;;6.40;4.22;;;9.00;99.90;;;;;;5075749;28;20024;-72
2021/11/05 00:23:49;;;;;;;8.77;5.13;;;8.90;99.90;;;;;;5075709;28;20025;-76
2021/11/05 00:26:15;;;;;;;4.90;2.80;;;8.90;99.90;;;;;;5075686;28;20032;-76
2021/11/05 00:28:40;;;;;;;8.85;4.45;;;8.90;99.90;;;;;;5075674;28;20032;-75
2021/11/05 00:31:06;;;;;;;5.43;2.90;;;8.80;99.90;;;;;;5075563;28;20032;-75
2021/11/05 00:33:31;;;;;;;4.55;3.05;;;8.70;99.90;;;;;;5076128;28;20035;-75
2021/11/05 00:35:57;;;;;;;4.65;2.78;;;8.70;99.90;;;;;;5075555;28;20024;-73
2021/11/05 00:38:23;;;;;;;7.85;3.05;;;8.70;99.90;;;;;;5075522;28;20036;-73
2021/11/05 00:40:49;;;;;;;6.55;3.17;;;8.60;99.90;;;;;;5075446;28;20027;-74
2021/11/05 00:43:14;;;;;;;5.47;2.88;;;8.60;99.90;;;;;;5075453;28;20035;-73
2021/11/05 00:45:40;;;;;;;5.43;3.30;;;8.60;99.90;;;;;;5075338;28;20024;-73
2021/11/05 00:48:06;;;;;;;4.25;2.50;;;8.60;99.90;;;;;;5075598;28;20422;-74
2021/11/05 00:50:31;;;;;;;4.03;2.65;;;8.70;99.90;;;;;;5075162;28;20024;-75
2021/11/05 00:52:58;;;;;;;6.40;3.35;;;8.70;99.90;;;;;;5075217;28;20414;-74
2021/11/05 00:55:25;;;;;;;7.80;3.97;;;8.70;99.90;;;;;;5075465;28;20031;-72
2021/11/05 00:57:51;;;;;;;10.45;5.00;;;8.70;99.90;;;;;;5075114;28;20016;-73
2021/11/05 01:00:17;;;;;;;8.07;5.10;;;8.60;99.90;;;;;;5075055;28;20024;-74
2021/11/05 01:02:45;;;;;;;8.82;5.50;;;8.50;99.90;;;;;;5075319;28;20056;-73
2021/11/05 01:05:12;;;;;;;8.57;4.78;;;8.50;99.90;;;;;;5075267;28;20028;-74
2021/11/05 01:07:39;;;;;;;8.82;5.03;;;8.40;99.90;;;;;;5074943;28;20077;-74
2021/11/05 01:10:05;;;;;;;10.82;5.57;;;8.40;99.90;;;;;;5074795;28;20158;-73
2021/11/05 01:12:31;;;;;;;9.40;4.72;;;8.30;99.90;;;;;;5075066;28;20489;-74
2021/11/05 01:14:57;;;;;;;12.45;3.65;;;8.30;99.90;;;;;;5075052;28;20056;-74
2021/11/05 01:17:22;;;;;;;8.48;4.55;;;8.30;99.90;;;;;;5074474;28;20093;-74
2021/11/05 01:19:48;;;;;;;7.60;4.30;;;8.20;99.90;;;;;;5074694;28;20494;-75
2021/11/05 01:22:14;;;;;;;8.70;4.70;;;8.20;99.90;;;;;;5074595;28;20089;-74
2021/11/05 01:24:40;;;;;;;6.88;4.47;;;8.30;99.90;;;;;;5074176;28;20032;-74
2021/11/05 01:27:06;;;;;;;6.85;4.20;;;8.20;99.90;;;;;;5074690;28;20056;-75
2021/11/05 01:29:32;;;;;;;6.07;3.75;;;8.20;99.90;;;;;;5074817;28;20031;-75
2021/11/05 01:31:58;;;;;;;7.68;3.67;;;8.10;99.90;;;;;;5074617;28;20385;-72
2021/11/05 01:34:24;;;;;;;10.57;3.90;;;8.10;99.90;;;;;;5074410;28;20028;-75
2021/11/05 01:36:51;;;;;;;9.57;4.38;;;8.10;99.90;;;;;;5073081;28;20090;-73
2021/11/05 01:39:16;;;;;;;8.43;4.80;;;8.10;99.90;;;;;;5074814;28;20048;-75
2021/11/05 01:41:43;;;;;;;12.70;4.65;;;8.00;99.90;;;;;;5074514;28;20075;-76
2021/11/05 01:44:09;;;;;;;8.35;4.65;;;8.10;99.90;;;;;;5074064;28;20474;-74
2021/11/05 01:46:41;;;;;;;6.93;3.90;;;8.20;99.90;;;;;;5074110;28;20029;-72
2021/11/05 01:49:12;;;;;;;6.32;3.65;;;8.20;99.90;;;;;;5074679;28;20024;-74
2021/11/05 01:51:38;;;;;;;7.85;4.15;;;8.30;99.90;;;;;;5073996;28;20457;-73
2021/11/05 01:54:10;;;;;;;7.03;4.50;;;8.30;99.90;;;;;;5074315;28;20394;-76
2021/11/05 01:56:41;;;;;;;8.38;3.80;;;8.20;99.90;;;;;;5073984;28;20044;-75
2021/11/05 01:59:07;;;;;;;9.43;4.47;;;8.10;99.90;;;;;;5074219;28;20047;-75
2021/11/05 02:01:34;;;;;;;7.85;4.00;;;8.00;99.90;;;;;;5073901;28;20503;-74
2021/11/05 02:04:00;;;;;;;7.03;3.60;;;8.10;99.90;;;;;;5074099;28;20486;-74
2021/11/05 02:06:27;;;;;;;5.72;3.67;;;8.20;99.90;;;;;;5073738;28;20016;-75
2021/11/05 02:08:53;;;;;;;7.90;3.50;;;8.20;99.90;;;;;;5073938;28;20024;-76
2021/11/05 02:11:22;;;;;;;5.28;2.75;;;8.10;99.90;;;;;;5073639;28;20093;-73
2021/11/05 02:13:47;;;;;;;3.50;2.53;;;8.10;99.90;;;;;;5073923;28;20024;-75
2021/11/05 02:16:14;;;;;;;5.03;2.80;;;7.90;99.90;;;;;;5073953;28;20089;-75
2021/11/05 02:18:41;;;;;;;4.38;3.08;;;7.80;99.90;;;;;;5073352;28;20044;-73
2021/11/05 02:21:13;;;;;;;6.05;2.78;;;7.80;99.90;;;;;;5073553;28;20100;-73
2021/11/05 02:23:40;;;;;;;5.43;2.95;;;7.70;99.90;;;;;;5073198;28;20052;-75
2021/11/05 02:26:06;;;;;;;5.82;3.45;;;7.60;99.90;;;;;;5073993;28;20081;-73
2021/11/05 02:28:36;;;;;;;4.95;2.80;;;7.70;99.90;;;;;;5073409;28;20068;-73
2021/11/05 02:31:02;;;;;;;;;;;7.60;99.90;;;;;;5073792;28;20115;-72
2021/11/05 02:33:30;;;;;;;5.35;3.20;;;7.70;99.90;;;;;;5073650;28;19939;-73
2021/11/05 02:35:55;;;;;;;4.30;2.85;;;7.70;99.90;;;;;;5073214;28;20031;-73
2021/11/05 02:38:21;;;;;;;4.53;3.08;;;7.90;99.90;;;;;;5073630;28;20021;-74
2021/11/05 02:40:47;;;;;;;5.72;3.30;;;7.90;99.90;;;;;;5073561;28;20416;-73
2021/11/05 02:43:13;;;;;;;6.88;3.65;;;7.80;99.90;;;;;;5073257;28;20095;-73
2021/11/05 02:45:50;;;;;;;6.95;3.90;;;7.80;99.90;;;;;;5073512;28;20386;-73
2021/11/05 02:48:16;;;;;;;9.05;4.88;;;7.80;99.90;;;;;;5073758;28;20021;-74
2021/11/05 02:50:43;;;;;;;14.10;5.78;;;7.70;99.90;;;;;;5071798;28;20021;-73
2021/11/05 02:53:09;;;;;;;13.55;5.53;;;7.70;99.90;;;;;;5073191;28;20086;-73
2021/11/05 02:55:34;;;;;;;12.13;5.20;;;7.80;99.90;;;;;;5071867;28;20491;-75
2021/11/05 02:58:00;;;;;;;6.90;3.97;;;7.80;99.90;;;;;;5073092;28;20502;-77
2021/11/05 03:00:27;;;;;;;6.57;3.83;;;7.90;99.90;;;;;;5073086;28;20017;-76
2021/11/05 03:02:52;;;;;;;5.82;3.63;;;7.90;99.90;;;;;;5073327;28;20427;-72
2021/11/05 03:05:18;;;;;;;7.22;4.10;;;7.80;99.90;;;;;;5073016;28;20067;-73
2021/11/05 03:07:44;;;;;;;10.85;4.28;;;7.70;99.90;;;;;;5073550;28;20031;-76
2021/11/05 03:10:12;;;;;;;9.13;4.13;;;7.70;99.90;;;;;;5072938;28;20028;-75
2021/11/05 03:12:39;;;;;;;8.10;3.92;;;7.60;99.90;;;;;;5073191;28;20421;-74
2021/11/05 03:15:05;;;;;;;7.55;4.50;;;7.70;99.90;;;;;;5072934;28;20021;-72
2021/11/05 03:17:32;;;;;;;7.80;3.97;;;7.70;99.90;;;;;;5072718;28;20047;-74
2021/11/05 03:19:58;;;;;;;8.43;4.28;;;7.70;99.90;;;;;;5072961;28;20028;-74
2021/11/05 03:22:24;;;;;;;8.50;4.03;;;7.60;99.90;;;;;;5073429;28;20074;-74
2021/11/05 03:24:50;;;;;;;6.35;3.58;;;7.70;99.90;;;;;;5072853;28;20486;-73
2021/11/05 03:27:15;;;;;;;8.00;4.10;;;7.70;99.90;;;;;;5072906;28;20021;-76
2021/11/05 03:29:42;;;;;;;9.18;4.65;;;7.60;99.90;;;;;;5072807;28;20021;-73
2021/11/05 03:32:08;;;;;;;8.57;4.00;;;7.70;99.90;;;;;;5072731;28;20221;-73
2021/11/05 03:34:34;;;;;;;6.25;3.58;;;7.60;99.90;;;;;;5072740;28;20107;-73
2021/11/05 03:37:00;;;;;;;5.57;3.78;;;7.60;99.90;;;;;;5072777;28;20105;-75
2021/11/05 03:39:25;;;;;;;9.13;4.35;;;7.70;99.90;;;;;;5072660;28;20487;-72
2021/11/05 03:41:51;;;;;;;10.25;3.95;;;7.70;99.90;;;;;;5072734;28;20021;-76
2021/11/05 03:44:17;;;;;;;8.00;4.40;;;7.70;99.90;;;;;;5072674;28;20082;-73
2021/11/05 03:46:43;;;;;;;8.88;4.88;;;7.60;99.90;;;;;;5072674;28;20498;-72
2021/11/05 03:49:09;;;;;;;9.70;4.32;;;7.50;99.90;;;;;;5075082;28;20036;-73
2021/11/05 03:51:35;;;;;;;7.63;4.18;;;7.40;99.90;;;;;;5075024;28;20024;-76
2021/11/05 03:54:01;;;;;;;6.15;4.10;;;7.30;99.90;;;;;;5076339;28;20478;-75
2021/11/05 03:56:27;;;;;;;7.45;4.05;;;7.30;99.90;;;;;;5076517;28;20017;-75
2021/11/05 03:58:53;;;;;;;8.20;3.78;;;7.20;99.90;;;;;;5076510;28;20383;-73
2021/11/05 04:01:20;;;;;;;7.93;4.65;;;7.10;99.90;;;;;;5076188;28;20021;-73
2021/11/05 04:03:50;;;;;;;9.70;4.30;;;7.20;99.90;;;;;;5076636;28;20134;-73
2021/11/05 04:06:17;;;;;;;7.18;4.32;;;7.30;99.90;;;;;;5076080;28;20027;-75
2021/11/05 04:08:43;;;;;;;7.55;3.90;;;7.20;99.90;;;;;;5076002;28;20029;-75
2021/11/05 04:11:08;;;;;;;7.80;4.20;;;7.30;99.90;;;;;;5075945;28;20035;-75
2021/11/05 04:13:34;;;;;;;11.65;4.60;;;7.30;99.90;;;;;;5076222;28;20478;-73
2021/11/05 04:16:00;;;;;;;6.60;4.03;;;7.40;99.90;;;;;;5076192;28;20025;-77
2021/11/05 04:18:26;;;;;;;6.13;3.70;;;7.30;99.90;;;;;;5075811;28;20561;-75
2021/11/05 04:20:51;;;;;;;6.10;3.60;;;7.40;99.90;;;;;;5075836;28;20052;-76
2021/11/05 04:23:17;;;;;;;4.95;3.55;;;7.40;99.90;;;;;;5076045;28;20027;-72
2021/11/05 04:25:44;;;;;;;5.38;3.40;;;7.30;99.90;;;;;;5076268;28;20017;-73
2021/11/05 04:28:11;;;;;;;7.90;3.72;;;7.30;99.90;;;;;;5075701;28;20020;-74
2021/11/05 04:30:38;;;;;;;6.00;3.60;;;7.30;99.90;;;;;;5075567;28;20107;-74
2021/11/05 04:33:04;;;;;;;6.88;3.88;;;7.30;99.90;;;;;;5075875;28;20025;-74
2021/11/05 04:35:30;;;;;;;6.80;3.90;;;7.10;99.90;;;;;;5075585;28;20017;-74
2021/11/05 04:37:55;;;;;;;7.25;3.85;;;7.10;99.90;;;;;;5075489;28;20028;-74
2021/11/05 04:40:21;;;;;;;6.97;3.60;;;7.00;99.90;;;;;;5075470;28;20475;-74
2021/11/05 04:42:46;;;;;;;8.85;4.43;;;7.00;99.90;;;;;;5075447;28;20491;-72
2021/11/05 04:45:12;;;;;;;8.63;4.45;;;6.90;99.90;;;;;;5075662;28;20540;-74
2021/11/05 04:47:38;;;;;;;7.45;4.40;;;6.80;99.90;;;;;;5074063;28;20505;-73
2021/11/05 04:50:04;;;;;;;8.68;4.60;;;6.80;99.90;;;;;;5075583;28;20056;-74
2021/11/05 04:52:30;;;;;;;7.50;4.68;;;6.90;99.90;;;;;;5075191;28;20486;-73
2021/11/05 04:54:56;;;;;;;7.05;4.40;;;6.90;99.90;;;;;;5075458;28;20027;-72
2021/11/05 04:57:22;;;;;;;10.07;4.75;;;6.90;99.90;;;;;;5075146;28;20429;-72
2021/11/05 04:59:48;;;;;;;6.50;3.83;;;6.80;99.90;;;;;;5072523;28;20024;-73
2021/11/05 05:02:13;;;;;;;9.70;5.28;;;6.70;99.90;;;;;;5075310;28;20052;-72
2021/11/05 05:04:39;;;;;;;8.02;4.88;;;6.80;99.90;;;;;;5075009;28;20027;-73
2021/11/05 05:07:05;;;;;;;7.60;3.88;;;6.80;99.90;;;;;;5074986;28;20509;-72
2021/11/05 05:09:30;;;;;;;10.82;4.50;;;6.60;99.90;;;;;;5074993;28;20099;-74
2021/11/05 05:11:56;;;;;;;7.63;4.60;;;6.70;99.90;;;;;;5075068;28;20032;-73
2021/11/05 05:14:22;;;;;;;7.53;4.30;;;6.80;99.90;;;;;;5074846;28;20017;-75
2021/11/05 05:16:48;;;;;;;11.48;5.10;;;6.70;99.90;;;;;;5074754;28;20016;-75
2021/11/05 05:19:13;;;;;;;8.85;4.90;;;6.70;99.90;;;;;;5074568;28;20040;-74
2021/11/05 05:21:39;;;;;;;12.07;6.13;;;6.80;99.90;;;;;;5074693;28;20090;-75
2021/11/05 05:24:04;;;;;;;10.38;5.78;;;6.80;99.90;;;;;;5073348;28;20047;-76
2021/11/05 05:26:30;;;;;;;9.68;4.97;;;6.80;99.90;;;;;;5074604;28;20052;-75
2021/11/05 05:28:56;;;;;;;9.88;4.55;;;6.80;99.90;;;;;;5074485;28;20032;-76
2021/11/05 05:31:22;;;;;;;9.35;4.68;;;6.70;99.90;;;;;;5074736;28;20111;-72
2021/11/05 05:33:47;;;;;;;7.93;4.60;;;6.50;99.90;;;;;;5074451;28;20028;-73
2021/11/05 05:36:13;;;;;;;5.07;3.45;;;6.40;99.90;;;;;;5074376;28;20027;-75
2021/11/05 05:38:39;;;;;;;6.22;3.00;;;6.50;99.90;;;;;;5074569;28;20063;-73
2021/11/05 05:41:05;;;;;;;6.22;3.90;;;6.60;99.90;;;;;;5074551;28;20042;-73
2021/11/05 05:43:31;;;;;;;7.50;3.58;;;6.50;99.90;;;;;;5074543;28;20025;-73
2021/11/05 05:45:57;;;;;;;5.25;3.10;;;6.50;99.90;;;;;;5074192;28;20031;-74
2021/11/05 05:48:23;;;;;;;6.78;3.92;;;6.40;99.90;;;;;;5074155;28;20029;-74
2021/11/05 05:50:50;;;;;;;8.45;4.68;;;6.20;99.90;;;;;;5074285;28;20478;-76
2021/11/05 05:53:16;;;;;;;11.25;4.45;;;6.20;99.90;;;;;;5074325;28;20016;-74
2021/11/05 05:55:42;;;;;;;7.95;4.80;;;6.20;99.90;;;;;;5073972;28;20398;-73
2021/11/05 05:58:07;;;;;;;6.95;4.47;;;6.30;99.90;;;;;;5074288;28;20052;-75
2021/11/05 06:00:34;;;;;;;11.75;6.10;;;6.20;99.90;;;;;;5073950;28;20017;-72
2021/11/05 06:03:00;;;;;;;9.55;5.10;;;6.10;99.90;;;;;;5073925;28;20047;-72
2021/11/05 06:05:26;;;;;;;7.38;4.68;;;6.20;99.90;;;;;;5073797;28;20028;-73
2021/11/05 06:07:51;;;;;;;9.57;4.28;;;6.10;99.90;;;;;;5073776;28;20077;-72
2021/11/05 06:10:17;;;;;;;30.88;15.02;;;6.20;99.90;;;;;;5073695;28;20429;-75
2021/11/05 06:12:43;;;;;;;12.80;6.00;;;6.00;99.90;;;;;;5073298;28;20535;-75
2021/11/05 06:15:10;;;;;;;13.45;6.05;;;5.90;99.90;;;;;;5073594;28;20544;-72
2021/11/05 06:17:36;;;;;;;14.00;7.22;;;5.80;99.90;;;;;;5073433;28;20040;-74
2021/11/05 06:20:04;;;;;;;9.90;5.70;;;5.80;99.90;;;;;;5073896;28;20108;-74
2021/11/05 06:22:30;;;;;;;20.80;13.73;;;5.80;99.90;;;;;;5072276;28;20078;-74
2021/11/05 06:24:57;;;;;;;32.33;14.50;;;5.90;99.90;;;;;;5073445;28;20025;-72
2021/11/05 06:27:24;;;;;;;41.50;12.65;;;5.90;99.90;;;;;;5073983;28;20037;-76
2021/11/05 06:29:50;;;;;;;29.05;10.80;;;5.80;99.90;;;;;;5072144;28;20024;-72
2021/11/05 06:32:16;;;;;;;18.63;9.10;;;5.70;99.90;;;;;;5073333;28;20032;-73
2021/11/05 06:34:42;;;;;;;16.05;6.50;;;5.70;99.90;;;;;;5073350;28;20024;-75
2021/11/05 06:37:08;;;;;;;19.15;6.53;;;5.60;99.90;;;;;;5073593;28;20054;-75
2021/11/05 06:39:34;;;;;;;24.73;7.45;;;5.80;99.90;;;;;;5073302;28;20021;-73
2021/11/05 06:42:00;;;;;;;17.80;7.38;;;5.90;99.90;;;;;;5073579;28;20025;-73
2021/11/05 06:44:26;;;;;;;10.55;5.80;;;5.70;99.90;;;;;;5073242;28;20020;-75
2021/11/05 06:46:52;;;;;;;19.40;7.32;;;5.70;99.90;;;;;;5073514;28;20028;-75
2021/11/05 06:49:18;;;;;;;14.35;6.32;;;5.80;99.90;;;;;;5073739;28;20024;-76
2021/11/05 06:51:44;;;;;;;16.60;6.47;;;5.90;99.90;;;;;;5073148;28;20089;-74
2021/11/05 06:54:10;;;;;;;11.07;5.70;;;5.90;99.90;;;;;;5073765;28;20043;-72
2021/11/05 06:56:35;;;;;;;16.70;6.28;;;5.80;99.90;;;;;;5073102;28;20028;-73
2021/11/05 06:59:02;;;;;;;14.43;7.63;;;5.90;99.90;;;;;;5073074;28;20017;-72
2021/11/05 07:01:28;;;;;;;11.90;8.10;;;5.80;99.90;;;;;;5073075;28;20163;-75
2021/11/05 07:03:54;;;;;;;13.40;7.18;;;5.80;99.90;;;;;;5071798;28;20115;-74
2021/11/05 07:06:20;;;;;;;11.73;6.40;;;5.70;99.90;;;;;;5073106;28;20031;-76
2021/11/05 07:08:46;;;;;;;9.88;6.50;;;5.50;99.90;;;;;;5072949;28;20024;-75
2021/11/05 07:11:12;;;;;;;13.32;7.57;;;5.50;99.90;;;;;;5073238;28;20381;-75
2021/11/05 07:13:38;;;;;;;11.88;6.97;;;5.50;99.90;;;;;;5071749;28;20415;-75
2021/11/05 07:16:04;;;;;;;19.85;8.48;;;5.50;99.90;;;;;;5072948;28;20036;-72
2021/11/05 07:18:32;;;;;;;11.30;6.55;;;5.60;99.90;;;;;;5073002;28;20391;-75
2021/11/05 07:21:01;;;;;;;15.40;7.05;;;5.60;99.90;;;;;;5072942;28;20021;-72
2021/11/05 07:23:27;;;;;;;17.92;8.07;;;5.60;99.90;;;;;;5074033;28;20040;-74
2021/11/05 07:25:52;;;;;;;29.80;8.77;;;5.60;99.90;;;;;;5076872;28;20052;-74
2021/11/05 07:28:18;;;;;;;14.60;7.05;;;5.60;99.90;;;;;;5076800;28;20020;-72
2021/11/05 07:30:44;;;;;;;12.98;7.30;;;5.50;99.90;;;;;;5076766;28;20031;-73
2021/11/05 07:33:10;;;;;;;16.00;6.78;;;5.50;99.90;;;;;;5077310;28;20016;-72
2021/11/05 07:35:35;;;;;;;13.07;5.82;;;5.40;99.90;;;;;;5077016;28;20045;-71
2021/11/05 07:38:02;;;;;;;11.57;6.60;;;5.50;99.90;;;;;;5076929;28;20099;-73
2021/11/05 07:40:28;;;;;;;12.65;6.03;;;5.50;99.90;;;;;;5076943;28;20020;-75
2021/11/05 07:42:54;;;;;;;11.70;7.28;;;5.50;99.90;;;;;;5076553;28;20028;-73
2021/11/05 07:45:20;;;;;;;11.55;6.63;;;5.60;99.90;;;;;;5076524;28;20050;-75
2021/11/05 07:47:48;;;;;;;13.10;6.68;;;5.80;99.90;;;;;;5076438;28;20024;-74
2021/11/05 07:50:16;;;;;;;10.70;5.50;;;5.90;99.90;;;;;;5076383;28;20398;-74
2021/11/05 07:52:42;;;;;;;10.13;5.93;;;6.00;99.90;;;;;;5076285;28;20078;-72
2021/11/05 07:55:09;;;;;;;9.80;6.07;;;6.00;99.90;;;;;;5076604;28;20053;-75
2021/11/05 07:57:35;;;;;;;11.20;6.47;;;6.00;99.90;;;;;;5076216;28;20019;-73
2021/11/05 08:00:02;;;;;;;11.70;6.72;;;6.00;99.90;;;;;;5076734;28;20056;-74
2021/11/05 08:02:28;;;;;;;13.98;9.65;;;6.20;99.90;;;;;;5076158;28;20371;-74
2021/11/05 08:04:53;;;;;;;15.68;10.50;;;6.20;99.90;;;;;;5076180;28;20490;-72
2021/11/05 08:07:21;;;;;;;14.82;9.40;;;6.10;99.90;;;;;;5076087;28;20032;-74
2021/11/05 08:09:47;;;;;;;15.15;9.10;;;6.10;99.90;;;;;;5076009;28;20063;-74
2021/11/05 08:12:13;;;;;;;13.30;7.97;;;6.20;99.90;;;;;;5075967;28;20021;-76
2021/11/05 08:14:39;;;;;;;11.07;6.43;;;6.20;99.90;;;;;;5074709;28;20025;-77
2021/11/05 08:17:05;;;;;;;10.85;6.65;;;6.20;99.90;;;;;;5075892;28;20028;-75
2021/11/05 08:19:31;;;;;;;9.85;6.45;;;6.30;99.90;;;;;;5075393;28;20048;-73
2021/11/05 08:21:57;;;;;;;10.38;5.55;;;6.40;99.90;;;;;;5075796;28;20116;-73
2021/11/05 08:24:22;;;;;;;9.65;6.25;;;6.50;99.90;;;;;;5076254;28;20024;-76
2021/11/05 08:26:48;;;;;;;10.27;6.18;;;6.60;99.90;;;;;;5075701;28;20035;-80
2021/11/05 08:29:14;;;;;;;14.00;6.55;;;6.60;99.90;;;;;;5074383;28;20020;-79
2021/11/05 08:31:43;;;;;;;23.50;8.20;;;6.70;99.90;;;;;;5075409;28;20051;-78
2021/11/05 08:34:09;;;;;;;10.77;7.35;;;6.70;99.90;;;;;;5074023;28;20107;-78
2021/11/05 08:36:36;;;;;;;13.40;8.73;;;6.70;99.90;;;;;;5075945;28;20032;-78
2021/11/05 08:39:03;;;;;;;13.55;7.78;;;6.70;99.90;;;;;;5075180;28;20074;-77
2021/11/05 08:41:29;;;;;;;13.05;9.27;;;6.80;99.90;;;;;;5074557;28;20417;-77
2021/11/05 08:43:56;;;;;;;10.82;6.75;;;7.00;99.90;;;;;;5074433;28;20028;-77
2021/11/05 08:46:23;;;;;;;12.95;8.57;;;7.30;99.90;;;;;;5074495;28;20040;-77
2021/11/05 08:48:54;;;;;;;8.48;5.72;;;7.80;99.90;;;;;;5074456;28;20074;-77
2021/11/05 08:51:22;;;;;;;8.27;5.60;;;8.30;99.90;;;;;;5074370;28;20111;-77
2021/11/05 08:53:48;;;;;;;9.75;5.93;;;8.80;99.90;;;;;;5075284;28;20026;-77
2021/11/05 08:56:14;;;;;;;12.25;5.82;;;9.20;99.90;;;;;;5073977;28;20119;-77
2021/11/05 08:58:40;;;;;;;9.43;5.80;;;9.40;99.90;;;;;;5075451;28;20354;-77
2021/11/05 09:01:07;;;;;;;9.80;6.70;;;9.80;99.90;;;;;;5074854;28;20086;-75
2021/11/05 09:03:33;;;;;;;11.20;7.15;;;10.10;99.90;;;;;;5075093;28;20020;-77
2021/11/05 09:06:02;;;;;;;15.05;9.85;;;10.20;99.90;;;;;;5075292;28;20032;-78
2021/11/05 09:08:30;;;;;;;14.68;8.75;;;10.60;99.90;;;;;;5074408;28;20149;-75
2021/11/05 09:10:57;;;;;;;11.23;6.50;;;10.50;99.90;;;;;;5074374;28;20051;-75
2021/11/05 09:13:23;;;;;;;16.80;8.98;;;11.00;99.90;;;;;;5074714;28;20021;-73
2021/11/05 09:15:49;;;;;;;21.55;10.15;;;11.50;99.90;;;;;;5074780;28;20016;-73
2021/11/05 09:18:14;;;;;;;15.35;8.50;;;11.80;99.90;;;;;;5074748;28;20084;-73
2021/11/05 09:20:40;;;;;;;14.05;8.95;;;11.90;99.90;;;;;;5074649;28;20032;-72
2021/11/05 09:23:06;;;;;;;19.42;9.88;;;12.10;99.90;;;;;;5074662;28;20020;-73
2021/11/05 09:25:32;;;;;;;16.95;9.85;;;12.30;99.90;;;;;;5074644;28;20028;-73
2021/11/05 09:27:58;;;;;;;18.73;9.82;;;12.10;99.90;;;;;;5074587;28;20029;-73
2021/11/05 09:30:24;;;;;;;18.23;9.90;;;11.90;99.90;;;;;;5074511;28;20067;-72
2021/11/05 09:32:53;;;;;;;16.58;9.07;;;12.00;99.90;;;;;;5074685;28;20029;-74
2021/11/05 09:35:20;;;;;;;13.18;6.60;;;11.80;99.90;;;;;;5074495;28;20036;-74
2021/11/05 09:37:49;;;;;;;8.88;5.60;;;11.60;99.90;;;;;;5074343;28;20044;-74
2021/11/05 09:40:15;;;;;;;8.00;5.43;;;11.50;99.90;;;;;;5073058;28;20107;-73
2021/11/05 09:42:46;;;;;;;8.80;5.60;;;12.00;99.90;;;;;;5074281;28;20036;-72
2021/11/05 09:45:13;;;;;;;12.80;8.85;;;12.30;99.90;;;;;;5074655;28;20099;-72
2021/11/05 09:47:41;;;;;;;10.40;5.88;;;12.20;99.90;;;;;;5073861;28;20020;-73
2021/11/05 09:50:08;;;;;;;11.75;6.05;;;12.00;99.90;;;;;;5074382;28;20029;-71
2021/11/05 09:52:33;;;;;;;7.07;4.10;;;11.60;99.90;;;;;;5074010;28;20087;-73
2021/11/05 09:55:02;;;;;;;6.82;3.70;;;11.30;99.90;;;;;;5074314;28;20028;-72
2021/11/05 09:57:28;;;;;;;4.35;3.17;;;11.10;99.90;;;;;;5074009;28;20533;-74
2021/11/05 09:59:56;;;;;;;6.05;3.10;;;11.10;99.90;;;;;;5074205;28;20102;-73
2021/11/05 10:02:22;;;;;;;4.63;3.05;;;11.00;99.90;;;;;;5073884;28;20508;-72
2021/11/05 10:04:48;;;;;;;6.43;2.42;;;11.00;99.90;;;;;;5073822;28;20056;-73
2021/11/05 10:07:14;;;;;;;5.38;2.20;;;10.90;99.90;;;;;;5074087;28;20052;-72
2021/11/05 10:09:41;;;;;;;6.50;2.15;;;10.90;99.90;;;;;;5074002;28;20032;-73
2021/11/05 10:12:12;;;;;;;3.70;2.38;;;10.90;99.90;;;;;;5073854;28;20559;-73
2021/11/05 10:14:38;;;;;;;6.60;2.47;;;10.90;99.90;;;;;;5074276;28;20490;-73
2021/11/05 10:17:07;;;;;;;3.22;2.10;;;10.90;99.90;;;;;;5072380;28;20111;-73
2021/11/05 10:19:59;;;;;;;4.32;1.73;;;10.90;99.90;;;;;;5073224;28;20041;-71
2021/11/05 10:22:52;;;;;;;4.93;2.17;;;10.90;99.90;;;;;;5073539;28;20078;-72
2021/11/05 10:25:25;;;;;;;4.38;2.05;;;10.90;99.90;;;;;;5073841;28;20482;-72
2021/11/05 10:28:09;;;;;;;7.45;2.40;;;10.80;99.90;;;;;;5073815;28;20486;-73
2021/11/05 10:30:39;;;;;;;3.83;2.10;;;10.80;99.90;;;;;;5074024;28;20497;-73
2021/11/05 10:33:05;;;;;;;7.57;2.22;;;10.70;99.90;;;;;;5073663;28;20032;-73
2021/11/05 10:35:32;;;;;;;4.60;2.38;;;10.70;99.90;;;;;;5073924;28;20024;-73
2021/11/05 10:38:04;;;;;;;2.20;2.00;;;10.70;99.90;;;;;;5073627;28;20074;-72
2021/11/05 10:40:41;;;;;;;4.85;2.00;;;10.70;99.90;;;;;;5071836;28;20031;-72
2021/11/05 10:43:07;;;;;;;2.67;1.55;;;10.70;99.90;;;;;;5073329;28;20032;-71
2021/11/05 10:45:37;;;;;;;3.05;1.73;;;10.80;99.90;;;;;;5073330;28;20103;-72
2021/11/05 10:48:10;;;;;;;6.40;1.90;;;10.80;99.90;;;;;;5073361;28;20028;-72
2021/11/05 10:50:49;;;;;;;3.95;1.80;;;10.80;99.90;;;;;;5073567;28;20027;-71
2021/11/05 10:53:23;;;;;;;3.20;1.55;;;10.80;99.90;;;;;;5073259;28;20067;-73
2021/11/05 10:55:52;;;;;;;3.85;2.00;;;10.70;99.90;;;;;;5073493;28;20036;-74
2021/11/05 10:58:19;;;;;;;2.70;1.75;;;10.70;99.90;;;;;;5073369;28;20482;-74
2021/11/05 11:00:46;;;;;;;4.13;2.10;;;10.80;99.90;;;;;;5073125;28;20025;-73
2021/11/05 11:03:16;;;;;;;4.90;2.30;;;10.80;99.90;;;;;;5073557;28;20070;-73
2021/11/05 11:05:44;;;;;;;2.63;1.85;;;10.90;99.90;;;;;;5071786;28;20035;-72
2021/11/05 11:08:32;;;;;;;2.67;2.00;;;10.90;99.90;;;;;;5073073;28;20475;-71
2021/11/05 11:11:14;;;;;;;5.22;2.63;;;11.00;99.90;;;;;;5073142;28;20385;-72
2021/11/05 11:13:41;;;;;;;3.97;2.22;;;11.10;99.90;;;;;;5073020;28;20470;-72
2021/11/05 11:16:28;;;;;;;3.78;2.10;;;11.30;99.90;;;;;;5072953;28;20029;-72
2021/11/05 11:19:08;;;;;;;4.63;1.67;;;11.30;99.90;;;;;;5072288;28;20049;-71
2021/11/05 11:21:50;;;;;;;3.50;2.03;;;11.30;99.90;;;;;;5073274;28;20016;-73
2021/11/05 11:24:20;;;;;;;2.65;1.58;;;11.30;99.90;;;;;;5073526;28;20056;-71
2021/11/05 11:26:49;;;;;;;4.38;1.55;;;11.20;99.90;;;;;;5072806;28;20033;-74
2021/11/05 11:29:16;;;;;;;2.72;1.77;;;11.20;99.90;;;;;;5072884;28;20086;-74
2021/11/05 11:31:44;;;;;;;2.45;1.70;;;11.30;99.90;;;;;;5073049;28;20044;-73
2021/11/05 11:34:11;;;;;;;4.15;1.55;;;11.40;99.90;;;;;;5072841;28;20147;-72
2021/11/05 11:36:41;;;;;;;2.40;1.70;;;11.40;99.90;;;;;;5072786;28;20017;-72
2021/11/05 11:39:11;;;;;;;4.47;2.13;;;11.30;99.90;;;;;;5088375;28;20394;-73
2021/11/05 11:41:38;;;;;;;3.50;1.85;;;11.30;99.90;;;;;;5073076;28;20258;-71
2021/11/05 11:44:06;;;;;;;3.28;1.80;;;11.40;99.90;;;;;;5072991;28;20588;-73
2021/11/05 11:46:53;;;;;;;5.43;2.30;;;11.50;99.90;;;;;;5072696;28;20103;-71
2021/11/05 11:49:37;;;;;;;2.72;1.90;;;11.50;99.90;;;;;;5072894;28;20024;-72
2021/11/05 11:52:24;;;;;;;4.05;1.80;;;11.50;99.90;;;;;;5072529;28;20024;-72
2021/11/05 11:54:58;;;;;;;3.35;1.95;;;11.50;99.90;;;;;;5061873;28;20453;-72
2021/11/05 11:57:32;;;;;;;4.30;1.98;;;11.50;99.90;;;;;;5071029;28;20017;-74
2021/11/05 12:00:06;;;;;;;6.75;2.50;;;11.40;99.90;;;;;;5072846;28;20054;-73
2021/11/05 12:02:36;;;;;;;3.40;2.17;;;11.30;99.90;;;;;;5072565;28;20024;-72
2021/11/05 12:05:21;;;;;;;4.10;2.30;;;11.30;99.90;;;;;;5072552;28;20028;-71
2021/11/05 12:08:14;;;;;;;4.32;2.38;;;11.30;99.90;;;;;;5072535;28;20050;-73
2021/11/05 12:10:42;;;;;;;5.75;3.30;;;11.30;99.90;;;;;;5075209;28;20024;-72
2021/11/05 12:13:33;;;;;;;4.13;2.22;;;11.30;99.90;;;;;;5076175;28;20111;-73
2021/11/05 12:16:22;;;;;;;4.38;2.03;;;11.20;99.90;;;;;;5075996;28;20024;-73
2021/11/05 12:19:10;;;;;;;4.47;2.28;;;11.10;99.90;;;;;;5076026;28;20090;-74
2021/11/05 12:21:42;;;;;;;7.32;3.63;;;11.10;99.90;;;;;;5074363;28;20024;-74
2021/11/05 12:24:17;;;;;;;4.88;2.53;;;11.10;99.90;;;;;;5076175;28;20089;-72
2021/11/05 12:26:42;;;;;;;4.10;2.53;;;11.30;99.90;;;;;;5076059;28;20559;-73
2021/11/05 12:29:09;;;;;;;7.82;2.20;;;11.30;99.90;;;;;;5075764;28;20028;-72
2021/11/05 12:31:37;;;;;;;4.78;1.90;;;11.30;99.90;;;;;;5075607;28;20394;-71
2021/11/05 12:34:21;;;;;;;4.80;2.10;;;11.30;99.90;;;;;;5075643;28;20020;-72
2021/11/05 12:36:50;;;;;;;5.35;1.77;;;11.40;99.90;;;;;;5075579;28;20024;-73
2021/11/05 12:39:45;;;;;;;5.60;1.92;;;11.60;99.90;;;;;;5075849;28;20020;-73
2021/11/05 12:42:16;;;;;;;4.82;1.90;;;11.60;99.90;;;;;;5076110;28;20067;-71
2021/11/05 12:44:56;;;;;;;6.00;2.03;;;11.70;99.90;;;;;;5075805;28;20477;-72
2021/11/05 12:47:43;;;;;;;3.40;1.58;;;11.80;99.90;;;;;;5075784;28;20391;-73
2021/11/05 12:50:10;;;;;;;3.30;1.58;;;11.80;99.90;;;;;;5075614;28;20035;-74
2021/11/05 12:52:36;;;;;;;2.75;1.60;;;11.70;99.90;;;;;;5075278;28;20028;-73
2021/11/05 12:55:03;;;;;;;2.63;1.60;;;11.60;99.90;;;;;;5075573;28;20021;-72